Hauptseite
METAR-TAF:

METAR-TAF

Flughäfen :

Heeresflugplatz Niederstetten

Niederstetten, Deutschland

Breite: 49-24N, Länge: 009-58E, Höhe: 468 m

Beobachtung

Neuester Wetterbericht von vor 23 Minuten, um 19:20 UTC
Wind 5 kt aus Südost
Temperatur 19°C
Luftfeuchtigkeit 52%
Luftdruck 1020 hPa
Sichtweite 10 km oder mehr

METAR: ETHN 051920Z 14005KT 9999 19/09 Q1020 BLU+BLU+

Zeit: 21:43 (19:43 UTC)

Prognose

Neuester Wetterbericht von vor 21 Minuten, um 19:22 UTC
Gültige Prognose vom 05 um 20 UTC bis 06 um 05 UTC
Wind 5 kt aus Südost
Sichtweite 10 km oder mehr
Leicht bewölkt in der Höhe von 5000 ft

TAF: ETHN 051922Z 0520/0605 13005KT 9999 NSW FEW050

Wetterbeobachtungen und Prognosen von mehr als 4000 Flughäfen (METAR und TAF Bericht).

Die verfügbaren Stationen werden durch gelbe und rote Markierungen auf der Karte dargestellt.

Führen Sie die Maus auf sie, um den Namen der Station zu sehen.

Darauf klicken, um die Beobachtung von Wetterbeobachtungen und Prognosen zu sehen.

Um die Karte zu ändern : klicken Sie auf den grünen Tasten mit einem schwarzen Kreuz Zum Vergrößern, auf den grünen Button mit einem Gedankenstrich zu verkleinern, oder auf die grünen Pfeile für benachbarte Karten.


METAR-TAF: